sensor_id;sensor_type;location;lat;lon;timestamp;P1;durP1;ratioP1;P2;durP2;ratioP2
6864;SDS011;3471;49.678;8.388;2023-04-03T00:01:28;3.72;;;3.42;;
6864;SDS011;3471;49.678;8.388;2023-04-03T00:03:54;5.75;;;3.60;;
6864;SDS011;3471;49.678;8.388;2023-04-03T00:06:20;4.40;;;2.78;;
6864;SDS011;3471;49.678;8.388;2023-04-03T00:08:46;3.60;;;3.30;;
6864;SDS011;3471;49.678;8.388;2023-04-03T00:11:12;3.47;;;3.22;;
6864;SDS011;3471;49.678;8.388;2023-04-03T00:13:37;4.30;;;3.80;;
6864;SDS011;3471;49.678;8.388;2023-04-03T00:16:04;2.78;;;2.58;;
6864;SDS011;3471;49.678;8.388;2023-04-03T00:18:30;3.38;;;3.08;;
6864;SDS011;3471;49.678;8.388;2023-04-03T00:20:56;6.57;;;3.40;;
6864;SDS011;3471;49.678;8.388;2023-04-03T00:23:22;3.90;;;3.25;;
6864;SDS011;3471;49.678;8.388;2023-04-03T00:25:48;2.80;;;2.30;;
6864;SDS011;3471;49.678;8.388;2023-04-03T00:28:15;5.60;;;3.30;;
6864;SDS011;3471;49.678;8.388;2023-04-03T00:30:41;4.30;;;3.90;;
6864;SDS011;3471;49.678;8.388;2023-04-03T00:33:06;4.20;;;3.80;;
6864;SDS011;3471;49.678;8.388;2023-04-03T00:35:33;4.10;;;3.67;;
6864;SDS011;3471;49.678;8.388;2023-04-03T00:37:59;3.72;;;3.40;;
6864;SDS011;3471;49.678;8.388;2023-04-03T00:40:25;5.93;;;2.78;;
6864;SDS011;3471;49.678;8.388;2023-04-03T00:42:54;4.22;;;3.42;;
6864;SDS011;3471;49.678;8.388;2023-04-03T00:45:26;8.52;;;4.05;;
6864;SDS011;3471;49.678;8.388;2023-04-03T00:48:03;3.88;;;3.10;;
6864;SDS011;3471;49.678;8.388;2023-04-03T00:50:34;3.67;;;3.38;;
6864;SDS011;3471;49.678;8.388;2023-04-03T00:53:03;6.82;;;4.65;;
6864;SDS011;3471;49.678;8.388;2023-04-03T00:55:29;3.15;;;2.78;;
6864;SDS011;3471;49.678;8.388;2023-04-03T00:57:56;7.72;;;3.58;;
6864;SDS011;3471;49.678;8.388;2023-04-03T01:00:22;3.80;;;2.70;;
6864;SDS011;3471;49.678;8.388;2023-04-03T01:02:49;8.00;;;3.85;;
6864;SDS011;3471;49.678;8.388;2023-04-03T01:05:16;6.18;;;3.92;;
6864;SDS011;3471;49.678;8.388;2023-04-03T01:07:43;8.50;;;4.10;;
6864;SDS011;3471;49.678;8.388;2023-04-03T01:10:10;6.07;;;3.65;;
6864;SDS011;3471;49.678;8.388;2023-04-03T01:12:39;6.97;;;2.95;;
6864;SDS011;3471;49.678;8.388;2023-04-03T01:15:09;4.97;;;4.07;;
6864;SDS011;3471;49.678;8.388;2023-04-03T01:17:38;3.28;;;2.83;;
6864;SDS011;3471;49.678;8.388;2023-04-03T01:25:55;4.60;;;3.13;;
6864;SDS011;3471;49.678;8.388;2023-04-03T01:28:23;2.90;;;2.60;;
6864;SDS011;3471;49.678;8.388;2023-04-03T01:31:02;3.42;;;3.13;;
6864;SDS011;3471;49.678;8.388;2023-04-03T01:33:40;3.90;;;3.50;;
6864;SDS011;3471;49.678;8.388;2023-04-03T01:36:07;7.25;;;3.70;;
6864;SDS011;3471;49.678;8.388;2023-04-03T01:38:33;4.40;;;3.28;;
6864;SDS011;3471;49.678;8.388;2023-04-03T01:40:59;2.90;;;2.67;;
6864;SDS011;3471;49.678;8.388;2023-04-03T01:43:25;3.08;;;2.78;;
6864;SDS011;3471;49.678;8.388;2023-04-03T01:45:50;3.80;;;3.40;;
6864;SDS011;3471;49.678;8.388;2023-04-03T01:48:17;9.27;;;4.03;;
6864;SDS011;3471;49.678;8.388;2023-04-03T01:50:43;3.88;;;2.92;;
6864;SDS011;3471;49.678;8.388;2023-04-03T01:53:08;3.73;;;3.43;;
6864;SDS011;3471;49.678;8.388;2023-04-03T01:55:35;6.40;;;2.90;;
6864;SDS011;3471;49.678;8.388;2023-04-03T01:58:00;5.22;;;2.92;;
6864;SDS011;3471;49.678;8.388;2023-04-03T02:00:26;6.90;;;2.40;;
6864;SDS011;3471;49.678;8.388;2023-04-03T02:02:52;4.60;;;2.40;;
6864;SDS011;3471;49.678;8.388;2023-04-03T02:05:17;4.40;;;2.97;;
6864;SDS011;3471;49.678;8.388;2023-04-03T02:07:43;3.40;;;2.65;;
6864;SDS011;3471;49.678;8.388;2023-04-03T02:10:09;2.83;;;2.10;;
6864;SDS011;3471;49.678;8.388;2023-04-03T02:12:35;3.10;;;2.70;;
6864;SDS011;3471;49.678;8.388;2023-04-03T02:15:01;5.70;;;2.80;;
6864;SDS011;3471;49.678;8.388;2023-04-03T02:17:26;5.53;;;2.70;;
6864;SDS011;3471;49.678;8.388;2023-04-03T02:19:52;6.47;;;2.83;;
6864;SDS011;3471;49.678;8.388;2023-04-03T02:22:17;4.27;;;3.60;;
6864;SDS011;3471;49.678;8.388;2023-04-03T02:24:44;4.07;;;2.33;;
6864;SDS011;3471;49.678;8.388;2023-04-03T02:27:09;4.18;;;2.45;;
6864;SDS011;3471;49.678;8.388;2023-04-03T02:29:35;2.50;;;2.20;;
6864;SDS011;3471;49.678;8.388;2023-04-03T02:32:00;4.72;;;2.97;;
6864;SDS011;3471;49.678;8.388;2023-04-03T02:34:26;5.00;;;2.53;;
6864;SDS011;3471;49.678;8.388;2023-04-03T02:36:52;4.40;;;2.50;;
6864;SDS011;3471;49.678;8.388;2023-04-03T02:39:17;3.20;;;2.87;;
6864;SDS011;3471;49.678;8.388;2023-04-03T02:41:43;4.50;;;3.03;;
6864;SDS011;3471;49.678;8.388;2023-04-03T02:44:09;3.27;;;2.57;;
6864;SDS011;3471;49.678;8.388;2023-04-03T02:46:35;7.20;;;2.50;;
6864;SDS011;3471;49.678;8.388;2023-04-03T02:49:01;14.90;;;2.63;;
6864;SDS011;3471;49.678;8.388;2023-04-03T02:51:27;5.30;;;4.33;;
6864;SDS011;3471;49.678;8.388;2023-04-03T02:53:53;3.47;;;3.13;;
6864;SDS011;3471;49.678;8.388;2023-04-03T02:56:18;2.50;;;1.97;;
6864;SDS011;3471;49.678;8.388;2023-04-03T02:58:45;2.88;;;2.55;;
6864;SDS011;3471;49.678;8.388;2023-04-03T03:01:10;3.40;;;2.80;;
6864;SDS011;3471;49.678;8.388;2023-04-03T03:03:36;4.35;;;2.75;;
6864;SDS011;3471;49.678;8.388;2023-04-03T03:06:09;4.07;;;2.53;;
6864;SDS011;3471;49.678;8.388;2023-04-03T03:08:36;2.67;;;2.42;;
6864;SDS011;3471;49.678;8.388;2023-04-03T03:11:02;4.30;;;2.55;;
6864;SDS011;3471;49.678;8.388;2023-04-03T03:13:29;5.45;;;2.60;;
6864;SDS011;3471;49.678;8.388;2023-04-03T03:15:55;6.10;;;3.30;;
6864;SDS011;3471;49.678;8.388;2023-04-03T03:18:21;14.30;;;3.50;;
6864;SDS011;3471;49.678;8.388;2023-04-03T03:20:50;4.03;;;2.50;;
6864;SDS011;3471;49.678;8.388;2023-04-03T03:23:24;4.55;;;3.17;;
6864;SDS011;3471;49.678;8.388;2023-04-03T03:26:07;7.00;;;3.03;;
6864;SDS011;3471;49.678;8.388;2023-04-03T03:28:35;4.22;;;2.75;;
6864;SDS011;3471;49.678;8.388;2023-04-03T03:31:01;7.70;;;3.13;;
6864;SDS011;3471;49.678;8.388;2023-04-03T03:33:27;5.07;;;3.50;;
6864;SDS011;3471;49.678;8.388;2023-04-03T03:35:53;2.47;;;2.10;;
6864;SDS011;3471;49.678;8.388;2023-04-03T03:38:19;3.00;;;2.20;;
6864;SDS011;3471;49.678;8.388;2023-04-03T03:40:49;2.97;;;2.67;;
6864;SDS011;3471;49.678;8.388;2023-04-03T03:43:16;4.78;;;3.05;;
6864;SDS011;3471;49.678;8.388;2023-04-03T03:45:42;3.70;;;2.55;;
6864;SDS011;3471;49.678;8.388;2023-04-03T03:48:08;7.20;;;3.93;;
6864;SDS011;3471;49.678;8.388;2023-04-03T03:50:34;4.03;;;3.70;;
6864;SDS011;3471;49.678;8.388;2023-04-03T03:53:00;3.10;;;2.40;;
6864;SDS011;3471;49.678;8.388;2023-04-03T03:55:26;3.00;;;2.08;;
6864;SDS011;3471;49.678;8.388;2023-04-03T03:57:51;6.33;;;3.00;;
6864;SDS011;3471;49.678;8.388;2023-04-03T04:00:17;3.30;;;2.50;;
6864;SDS011;3471;49.678;8.388;2023-04-03T04:02:43;2.92;;;2.63;;
6864;SDS011;3471;49.678;8.388;2023-04-03T04:05:09;3.38;;;3.08;;
6864;SDS011;3471;49.678;8.388;2023-04-03T04:07:35;4.00;;;3.03;;
6864;SDS011;3471;49.678;8.388;2023-04-03T04:10:00;3.40;;;2.67;;
6864;SDS011;3471;49.678;8.388;2023-04-03T04:12:26;4.10;;;3.28;;
6864;SDS011;3471;49.678;8.388;2023-04-03T04:14:52;6.00;;;2.80;;
6864;SDS011;3471;49.678;8.388;2023-04-03T04:17:17;4.28;;;3.88;;
6864;SDS011;3471;49.678;8.388;2023-04-03T04:19:44;3.60;;;2.97;;
6864;SDS011;3471;49.678;8.388;2023-04-03T04:22:10;3.60;;;2.53;;
6864;SDS011;3471;49.678;8.388;2023-04-03T04:24:35;5.70;;;3.33;;
6864;SDS011;3471;49.678;8.388;2023-04-03T04:27:01;3.50;;;3.20;;
6864;SDS011;3471;49.678;8.388;2023-04-03T04:29:27;3.03;;;2.77;;
6864;SDS011;3471;49.678;8.388;2023-04-03T04:31:52;6.10;;;3.33;;
6864;SDS011;3471;49.678;8.388;2023-04-03T04:34:18;3.50;;;2.50;;
6864;SDS011;3471;49.678;8.388;2023-04-03T04:36:43;3.10;;;2.78;;
6864;SDS011;3471;49.678;8.388;2023-04-03T04:39:09;3.60;;;3.30;;
6864;SDS011;3471;49.678;8.388;2023-04-03T04:41:35;7.10;;;3.50;;
6864;SDS011;3471;49.678;8.388;2023-04-03T04:44:00;6.03;;;4.10;;
6864;SDS011;3471;49.678;8.388;2023-04-03T04:46:26;6.47;;;3.92;;
6864;SDS011;3471;49.678;8.388;2023-04-03T04:48:51;3.70;;;3.37;;
6864;SDS011;3471;49.678;8.388;2023-04-03T04:51:17;6.18;;;5.28;;
6864;SDS011;3471;49.678;8.388;2023-04-03T04:53:43;9.93;;;4.57;;
6864;SDS011;3471;49.678;8.388;2023-04-03T04:56:09;7.03;;;3.60;;
6864;SDS011;3471;49.678;8.388;2023-04-03T04:58:34;3.97;;;3.67;;
6864;SDS011;3471;49.678;8.388;2023-04-03T05:01:07;4.55;;;4.10;;
6864;SDS011;3471;49.678;8.388;2023-04-03T05:03:34;7.90;;;4.20;;
6864;SDS011;3471;49.678;8.388;2023-04-03T05:06:00;4.95;;;3.55;;
6864;SDS011;3471;49.678;8.388;2023-04-03T05:08:26;4.95;;;3.45;;
6864;SDS011;3471;49.678;8.388;2023-04-03T05:10:51;9.33;;;3.70;;
6864;SDS011;3471;49.678;8.388;2023-04-03T05:13:18;3.47;;;3.17;;
6864;SDS011;3471;49.678;8.388;2023-04-03T05:15:44;8.07;;;3.72;;
6864;SDS011;3471;49.678;8.388;2023-04-03T05:18:10;6.10;;;4.00;;
6864;SDS011;3471;49.678;8.388;2023-04-03T05:20:35;8.13;;;4.45;;
6864;SDS011;3471;49.678;8.388;2023-04-03T05:23:02;6.65;;;3.70;;
6864;SDS011;3471;49.678;8.388;2023-04-03T05:25:28;5.97;;;3.55;;
6864;SDS011;3471;49.678;8.388;2023-04-03T05:27:54;4.72;;;4.32;;
6864;SDS011;3471;49.678;8.388;2023-04-03T05:30:20;3.20;;;2.90;;
6864;SDS011;3471;49.678;8.388;2023-04-03T05:32:45;4.60;;;4.20;;
6864;SDS011;3471;49.678;8.388;2023-04-03T05:35:11;8.00;;;3.20;;
6864;SDS011;3471;49.678;8.388;2023-04-03T05:37:37;6.88;;;3.80;;
6864;SDS011;3471;49.678;8.388;2023-04-03T05:40:03;8.80;;;3.70;;
6864;SDS011;3471;49.678;8.388;2023-04-03T05:42:29;4.32;;;3.08;;
6864;SDS011;3471;49.678;8.388;2023-04-03T05:44:55;4.95;;;3.90;;
6864;SDS011;3471;49.678;8.388;2023-04-03T05:47:21;5.77;;;3.67;;
6864;SDS011;3471;49.678;8.388;2023-04-03T05:49:46;5.40;;;2.63;;
6864;SDS011;3471;49.678;8.388;2023-04-03T05:52:23;5.03;;;3.28;;
6864;SDS011;3471;49.678;8.388;2023-04-03T05:54:52;3.30;;;2.78;;
6864;SDS011;3471;49.678;8.388;2023-04-03T05:57:18;2.92;;;2.55;;
6864;SDS011;3471;49.678;8.388;2023-04-03T05:59:45;6.22;;;4.30;;
6864;SDS011;3471;49.678;8.388;2023-04-03T06:02:12;6.20;;;3.92;;
6864;SDS011;3471;49.678;8.388;2023-04-03T06:04:39;5.00;;;4.03;;
6864;SDS011;3471;49.678;8.388;2023-04-03T06:07:04;7.70;;;4.03;;
6864;SDS011;3471;49.678;8.388;2023-04-03T06:09:32;3.65;;;3.35;;
6864;SDS011;3471;49.678;8.388;2023-04-03T06:11:58;6.70;;;3.75;;
6864;SDS011;3471;49.678;8.388;2023-04-03T06:14:24;3.50;;;3.20;;
6864;SDS011;3471;49.678;8.388;2023-04-03T06:16:50;6.85;;;3.25;;
6864;SDS011;3471;49.678;8.388;2023-04-03T06:19:16;2.60;;;2.40;;
6864;SDS011;3471;49.678;8.388;2023-04-03T06:21:42;3.25;;;2.25;;
6864;SDS011;3471;49.678;8.388;2023-04-03T06:24:08;7.70;;;2.40;;
6864;SDS011;3471;49.678;8.388;2023-04-03T06:26:34;6.25;;;2.95;;
6864;SDS011;3471;49.678;8.388;2023-04-03T06:29:00;3.17;;;1.98;;
6864;SDS011;3471;49.678;8.388;2023-04-03T06:31:26;10.98;;;3.67;;
6864;SDS011;3471;49.678;8.388;2023-04-03T06:33:52;6.72;;;2.45;;
6864;SDS011;3471;49.678;8.388;2023-04-03T06:36:18;3.97;;;2.37;;
6864;SDS011;3471;49.678;8.388;2023-04-03T06:38:45;12.25;;;2.33;;
6864;SDS011;3471;49.678;8.388;2023-04-03T06:41:11;8.70;;;3.30;;
6864;SDS011;3471;49.678;8.388;2023-04-03T06:43:37;2.90;;;1.60;;
6864;SDS011;3471;49.678;8.388;2023-04-03T06:46:03;1.77;;;1.60;;
6864;SDS011;3471;49.678;8.388;2023-04-03T06:48:29;8.10;;;2.83;;
6864;SDS011;3471;49.678;8.388;2023-04-03T06:50:55;10.73;;;3.13;;
6864;SDS011;3471;49.678;8.388;2023-04-03T06:53:20;5.32;;;2.88;;
6864;SDS011;3471;49.678;8.388;2023-04-03T06:55:46;10.37;;;3.90;;
6864;SDS011;3471;49.678;8.388;2023-04-03T06:58:12;5.23;;;3.30;;
6864;SDS011;3471;49.678;8.388;2023-04-03T07:00:40;8.07;;;3.88;;
6864;SDS011;3471;49.678;8.388;2023-04-03T07:03:06;2.80;;;2.00;;
6864;SDS011;3471;49.678;8.388;2023-04-03T07:05:32;7.37;;;2.53;;
6864;SDS011;3471;49.678;8.388;2023-04-03T07:07:57;4.43;;;3.47;;
6864;SDS011;3471;49.678;8.388;2023-04-03T07:10:23;5.10;;;2.57;;
6864;SDS011;3471;49.678;8.388;2023-04-03T07:12:48;5.85;;;2.65;;
6864;SDS011;3471;49.678;8.388;2023-04-03T07:15:14;6.70;;;3.00;;
6864;SDS011;3471;49.678;8.388;2023-04-03T07:17:40;7.60;;;4.27;;
6864;SDS011;3471;49.678;8.388;2023-04-03T07:20:06;4.50;;;2.63;;
6864;SDS011;3471;49.678;8.388;2023-04-03T07:22:33;7.90;;;3.77;;
6864;SDS011;3471;49.678;8.388;2023-04-03T07:24:58;6.00;;;3.70;;
6864;SDS011;3471;49.678;8.388;2023-04-03T07:27:24;5.93;;;3.35;;
6864;SDS011;3471;49.678;8.388;2023-04-03T07:29:50;4.33;;;2.53;;
6864;SDS011;3471;49.678;8.388;2023-04-03T07:32:16;6.93;;;3.00;;
6864;SDS011;3471;49.678;8.388;2023-04-03T07:34:42;2.50;;;2.30;;
6864;SDS011;3471;49.678;8.388;2023-04-03T07:37:08;6.30;;;3.00;;
6864;SDS011;3471;49.678;8.388;2023-04-03T07:39:34;5.30;;;3.63;;
6864;SDS011;3471;49.678;8.388;2023-04-03T07:42:00;6.17;;;3.57;;
6864;SDS011;3471;49.678;8.388;2023-04-03T07:44:26;5.70;;;3.72;;
6864;SDS011;3471;49.678;8.388;2023-04-03T07:46:52;3.80;;;3.07;;
6864;SDS011;3471;49.678;8.388;2023-04-03T07:49:20;4.27;;;2.97;;
6864;SDS011;3471;49.678;8.388;2023-04-03T07:51:48;4.60;;;3.10;;
6864;SDS011;3471;49.678;8.388;2023-04-03T07:54:13;4.75;;;2.70;;
6864;SDS011;3471;49.678;8.388;2023-04-03T07:56:40;4.18;;;2.85;;
6864;SDS011;3471;49.678;8.388;2023-04-03T07:59:07;6.22;;;2.42;;
6864;SDS011;3471;49.678;8.388;2023-04-03T08:01:33;8.07;;;3.30;;
6864;SDS011;3471;49.678;8.388;2023-04-03T08:03:59;8.40;;;3.00;;
6864;SDS011;3471;49.678;8.388;2023-04-03T08:06:25;2.23;;;1.93;;
6864;SDS011;3471;49.678;8.388;2023-04-03T08:08:51;10.00;;;3.90;;
6864;SDS011;3471;49.678;8.388;2023-04-03T08:11:17;5.65;;;1.77;;
6864;SDS011;3471;49.678;8.388;2023-04-03T08:13:44;2.50;;;1.30;;
6864;SDS011;3471;49.678;8.388;2023-04-03T08:16:16;7.15;;;2.17;;
6864;SDS011;3471;49.678;8.388;2023-04-03T08:18:43;8.05;;;2.92;;
6864;SDS011;3471;49.678;8.388;2023-04-03T08:21:09;7.27;;;2.80;;
6864;SDS011;3471;49.678;8.388;2023-04-03T08:23:36;6.72;;;4.15;;
6864;SDS011;3471;49.678;8.388;2023-04-03T08:26:06;5.97;;;3.40;;
6864;SDS011;3471;49.678;8.388;2023-04-03T08:28:33;3.78;;;2.25;;
6864;SDS011;3471;49.678;8.388;2023-04-03T08:31:02;2.80;;;1.80;;
6864;SDS011;3471;49.678;8.388;2023-04-03T08:33:30;3.33;;;2.03;;
6864;SDS011;3471;49.678;8.388;2023-04-03T08:35:56;2.70;;;2.00;;
6864;SDS011;3471;49.678;8.388;2023-04-03T08:38:22;2.93;;;2.03;;
6864;SDS011;3471;49.678;8.388;2023-04-03T08:40:47;3.50;;;1.90;;
6864;SDS011;3471;49.678;8.388;2023-04-03T08:43:29;7.50;;;2.38;;
6864;SDS011;3471;49.678;8.388;2023-04-03T08:46:05;3.67;;;1.92;;
6864;SDS011;3471;49.678;8.388;2023-04-03T08:48:36;16.30;;;1.90;;
6864;SDS011;3471;49.678;8.388;2023-04-03T08:51:12;7.70;;;2.30;;
6864;SDS011;3471;49.678;8.388;2023-04-03T08:53:41;2.72;;;2.00;;
6864;SDS011;3471;49.678;8.388;2023-04-03T08:56:21;8.98;;;3.65;;
6864;SDS011;3471;49.678;8.388;2023-04-03T08:58:55;6.65;;;2.58;;
6864;SDS011;3471;49.678;8.388;2023-04-03T09:01:24;5.20;;;2.38;;
6864;SDS011;3471;49.678;8.388;2023-04-03T09:03:54;7.65;;;3.72;;
6864;SDS011;3471;49.678;8.388;2023-04-03T09:06:21;3.17;;;2.30;;
6864;SDS011;3471;49.678;8.388;2023-04-03T09:08:52;3.60;;;1.53;;
6864;SDS011;3471;49.678;8.388;2023-04-03T09:11:25;8.80;;;2.30;;
6864;SDS011;3471;49.678;8.388;2023-04-03T09:13:56;2.80;;;1.70;;
6864;SDS011;3471;49.678;8.388;2023-04-03T09:16:47;5.85;;;2.15;;
6864;SDS011;3471;49.678;8.388;2023-04-03T09:21:58;6.73;;;2.20;;
6864;SDS011;3471;49.678;8.388;2023-04-03T09:24:26;4.32;;;1.65;;
6864;SDS011;3471;49.678;8.388;2023-04-03T09:26:57;5.32;;;2.15;;
6864;SDS011;3471;49.678;8.388;2023-04-03T09:29:28;2.35;;;1.45;;
6864;SDS011;3471;49.678;8.388;2023-04-03T09:32:01;2.88;;;1.67;;
6864;SDS011;3471;49.678;8.388;2023-04-03T09:34:37;2.08;;;1.50;;
6864;SDS011;3471;49.678;8.388;2023-04-03T09:37:06;2.40;;;1.40;;
6864;SDS011;3471;49.678;8.388;2023-04-03T09:39:32;6.75;;;1.90;;
6864;SDS011;3471;49.678;8.388;2023-04-03T09:42:21;3.95;;;1.75;;
6864;SDS011;3471;49.678;8.388;2023-04-03T09:44:55;2.97;;;1.63;;
6864;SDS011;3471;49.678;8.388;2023-04-03T09:47:30;5.90;;;1.48;;
6864;SDS011;3471;49.678;8.388;2023-04-03T09:52:39;3.40;;;2.30;;
6864;SDS011;3471;49.678;8.388;2023-04-03T09:57:51;2.17;;;1.58;;
6864;SDS011;3471;49.678;8.388;2023-04-03T10:00:23;2.53;;;1.83;;
6864;SDS011;3471;49.678;8.388;2023-04-03T10:02:55;4.20;;;1.90;;
6864;SDS011;3471;49.678;8.388;2023-04-03T10:10:40;3.70;;;2.00;;
6864;SDS011;3471;49.678;8.388;2023-04-03T10:13:25;5.10;;;1.60;;
6864;SDS011;3471;49.678;8.388;2023-04-03T10:15:55;2.40;;;1.50;;
6864;SDS011;3471;49.678;8.388;2023-04-03T10:18:29;6.30;;;3.00;;
6864;SDS011;3471;49.678;8.388;2023-04-03T10:24:01;6.20;;;2.22;;
6864;SDS011;3471;49.678;8.388;2023-04-03T10:35:15;8.63;;;1.70;;
6864;SDS011;3471;49.678;8.388;2023-04-03T10:38:04;7.50;;;2.17;;
6864;SDS011;3471;49.678;8.388;2023-04-03T10:41:23;4.50;;;1.48;;
6864;SDS011;3471;49.678;8.388;2023-04-03T10:56:12;4.10;;;1.77;;
6864;SDS011;3471;49.678;8.388;2023-04-03T10:58:38;2.40;;;1.98;;
6864;SDS011;3471;49.678;8.388;2023-04-03T11:01:08;2.65;;;1.20;;
6864;SDS011;3471;49.678;8.388;2023-04-03T11:03:38;1.80;;;1.50;;
6864;SDS011;3471;49.678;8.388;2023-04-03T11:06:11;6.50;;;2.72;;
6864;SDS011;3471;49.678;8.388;2023-04-03T11:08:42;2.92;;;2.20;;
6864;SDS011;3471;49.678;8.388;2023-04-03T11:11:12;4.88;;;2.08;;
6864;SDS011;3471;49.678;8.388;2023-04-03T11:13:43;5.20;;;2.45;;
6864;SDS011;3471;49.678;8.388;2023-04-03T11:16:30;2.10;;;1.40;;
6864;SDS011;3471;49.678;8.388;2023-04-03T11:19:08;2.50;;;1.73;;
6864;SDS011;3471;49.678;8.388;2023-04-03T11:21:40;5.25;;;2.10;;
6864;SDS011;3471;49.678;8.388;2023-04-03T11:24:21;8.30;;;2.25;;
6864;SDS011;3471;49.678;8.388;2023-04-03T11:26:50;6.25;;;2.05;;
6864;SDS011;3471;49.678;8.388;2023-04-03T11:29:18;7.45;;;2.88;;
6864;SDS011;3471;49.678;8.388;2023-04-03T11:34:34;5.93;;;1.80;;
6864;SDS011;3471;49.678;8.388;2023-04-03T11:37:20;2.03;;;1.60;;
6864;SDS011;3471;49.678;8.388;2023-04-03T11:39:50;2.70;;;1.60;;
6864;SDS011;3471;49.678;8.388;2023-04-03T11:42:33;5.38;;;2.25;;
6864;SDS011;3471;49.678;8.388;2023-04-03T11:45:24;2.72;;;1.58;;
6864;SDS011;3471;49.678;8.388;2023-04-03T11:48:00;2.30;;;1.40;;
6864;SDS011;3471;49.678;8.388;2023-04-03T11:50:46;5.65;;;2.03;;
6864;SDS011;3471;49.678;8.388;2023-04-03T11:58:22;10.60;;;2.08;;
6864;SDS011;3471;49.678;8.388;2023-04-03T12:19:27;5.30;;;2.60;;
6864;SDS011;3471;49.678;8.388;2023-04-03T12:32:36;1.80;;;1.15;;
6864;SDS011;3471;49.678;8.388;2023-04-03T12:35:28;2.50;;;1.80;;
6864;SDS011;3471;49.678;8.388;2023-04-03T12:46:37;4.90;;;2.20;;
6864;SDS011;3471;49.678;8.388;2023-04-03T12:49:20;6.20;;;2.25;;
6864;SDS011;3471;49.678;8.388;2023-04-03T12:51:56;2.40;;;1.55;;
6864;SDS011;3471;49.678;8.388;2023-04-03T12:59:45;2.88;;;2.42;;
6864;SDS011;3471;49.678;8.388;2023-04-03T13:05:10;3.50;;;1.65;;
6864;SDS011;3471;49.678;8.388;2023-04-03T13:07:41;2.90;;;1.90;;
6864;SDS011;3471;49.678;8.388;2023-04-03T13:12:34;3.03;;;2.00;;
6864;SDS011;3471;49.678;8.388;2023-04-03T13:15:19;4.40;;;2.00;;
6864;SDS011;3471;49.678;8.388;2023-04-03T13:17:48;4.40;;;1.85;;
6864;SDS011;3471;49.678;8.388;2023-04-03T13:20:24;3.00;;;2.08;;
6864;SDS011;3471;49.678;8.388;2023-04-03T13:22:52;5.10;;;2.22;;
6864;SDS011;3471;49.678;8.388;2023-04-03T13:25:21;1.50;;;0.98;;
6864;SDS011;3471;49.678;8.388;2023-04-03T13:27:49;4.43;;;2.00;;
6864;SDS011;3471;49.678;8.388;2023-04-03T13:30:24;2.30;;;1.75;;
6864;SDS011;3471;49.678;8.388;2023-04-03T13:32:50;4.10;;;1.88;;
6864;SDS011;3471;49.678;8.388;2023-04-03T13:35:24;19.10;;;2.45;;
6864;SDS011;3471;49.678;8.388;2023-04-03T13:37:57;4.20;;;2.20;;
6864;SDS011;3471;49.678;8.388;2023-04-03T13:40:25;1.50;;;1.20;;
6864;SDS011;3471;49.678;8.388;2023-04-03T13:45:57;4.00;;;2.65;;
6864;SDS011;3471;49.678;8.388;2023-04-03T13:48:26;5.70;;;2.67;;
6864;SDS011;3471;49.678;8.388;2023-04-03T13:51:22;9.00;;;2.83;;
6864;SDS011;3471;49.678;8.388;2023-04-03T13:59:01;5.68;;;1.40;;
6864;SDS011;3471;49.678;8.388;2023-04-03T14:01:47;3.10;;;1.50;;
6864;SDS011;3471;49.678;8.388;2023-04-03T14:07:01;3.03;;;2.20;;
6864;SDS011;3471;49.678;8.388;2023-04-03T14:09:28;4.10;;;1.85;;
6864;SDS011;3471;49.678;8.388;2023-04-03T14:11:59;4.40;;;2.20;;
6864;SDS011;3471;49.678;8.388;2023-04-03T14:14:30;4.30;;;2.30;;
6864;SDS011;3471;49.678;8.388;2023-04-03T14:16:59;4.97;;;2.15;;
6864;SDS011;3471;49.678;8.388;2023-04-03T14:19:28;5.38;;;1.85;;
6864;SDS011;3471;49.678;8.388;2023-04-03T14:22:00;2.90;;;2.00;;
6864;SDS011;3471;49.678;8.388;2023-04-03T14:24:32;2.80;;;1.87;;
6864;SDS011;3471;49.678;8.388;2023-04-03T14:26:57;2.72;;;1.80;;
6864;SDS011;3471;49.678;8.388;2023-04-03T14:29:24;2.40;;;1.55;;
6864;SDS011;3471;49.678;8.388;2023-04-03T14:31:50;1.80;;;1.40;;
6864;SDS011;3471;49.678;8.388;2023-04-03T14:34:16;6.30;;;2.03;;
6864;SDS011;3471;49.678;8.388;2023-04-03T14:36:42;2.67;;;1.87;;
6864;SDS011;3471;49.678;8.388;2023-04-03T14:39:10;2.65;;;1.35;;
6864;SDS011;3471;49.678;8.388;2023-04-03T14:41:42;1.70;;;1.30;;
6864;SDS011;3471;49.678;8.388;2023-04-03T14:44:08;2.90;;;2.00;;
6864;SDS011;3471;49.678;8.388;2023-04-03T14:46:36;4.90;;;1.53;;
6864;SDS011;3471;49.678;8.388;2023-04-03T14:49:06;4.00;;;2.80;;
6864;SDS011;3471;49.678;8.388;2023-04-03T14:51:40;2.80;;;1.60;;
6864;SDS011;3471;49.678;8.388;2023-04-03T14:54:05;4.30;;;2.20;;
6864;SDS011;3471;49.678;8.388;2023-04-03T14:56:42;4.83;;;1.70;;
6864;SDS011;3471;49.678;8.388;2023-04-03T14:59:09;3.20;;;2.20;;
6864;SDS011;3471;49.678;8.388;2023-04-03T15:01:37;4.85;;;2.60;;
6864;SDS011;3471;49.678;8.388;2023-04-03T15:04:13;3.70;;;2.53;;
6864;SDS011;3471;49.678;8.388;2023-04-03T15:06:45;6.40;;;2.22;;
6864;SDS011;3471;49.678;8.388;2023-04-03T15:09:22;4.10;;;2.00;;
6864;SDS011;3471;49.678;8.388;2023-04-03T15:11:50;2.30;;;1.30;;
6864;SDS011;3471;49.678;8.388;2023-04-03T15:14:17;3.30;;;1.80;;
6864;SDS011;3471;49.678;8.388;2023-04-03T15:16:43;2.35;;;1.65;;
6864;SDS011;3471;49.678;8.388;2023-04-03T15:19:09;5.80;;;1.70;;
6864;SDS011;3471;49.678;8.388;2023-04-03T15:21:36;5.10;;;2.22;;
6864;SDS011;3471;49.678;8.388;2023-04-03T15:24:02;4.00;;;2.15;;
6864;SDS011;3471;49.678;8.388;2023-04-03T15:26:28;2.42;;;1.60;;
6864;SDS011;3471;49.678;8.388;2023-04-03T15:28:54;1.90;;;1.60;;
6864;SDS011;3471;49.678;8.388;2023-04-03T15:31:20;3.40;;;2.45;;
6864;SDS011;3471;49.678;8.388;2023-04-03T15:33:45;2.60;;;2.10;;
6864;SDS011;3471;49.678;8.388;2023-04-03T15:36:11;2.57;;;1.90;;
6864;SDS011;3471;49.678;8.388;2023-04-03T15:38:36;2.20;;;1.20;;
6864;SDS011;3471;49.678;8.388;2023-04-03T15:41:03;3.53;;;2.37;;
6864;SDS011;3471;49.678;8.388;2023-04-03T15:43:29;2.50;;;2.03;;
6864;SDS011;3471;49.678;8.388;2023-04-03T15:45:56;7.97;;;2.67;;
6864;SDS011;3471;49.678;8.388;2023-04-03T15:48:24;3.93;;;2.27;;
6864;SDS011;3471;49.678;8.388;2023-04-03T15:50:50;3.90;;;1.70;;
6864;SDS011;3471;49.678;8.388;2023-04-03T15:53:16;2.78;;;1.70;;
6864;SDS011;3471;49.678;8.388;2023-04-03T15:55:41;7.60;;;1.90;;
6864;SDS011;3471;49.678;8.388;2023-04-03T15:58:07;1.80;;;1.30;;
6864;SDS011;3471;49.678;8.388;2023-04-03T16:00:33;3.42;;;2.42;;
6864;SDS011;3471;49.678;8.388;2023-04-03T16:03:10;2.63;;;1.63;;
6864;SDS011;3471;49.678;8.388;2023-04-03T16:05:39;3.95;;;2.10;;
6864;SDS011;3471;49.678;8.388;2023-04-03T16:08:05;3.13;;;2.55;;
6864;SDS011;3471;49.678;8.388;2023-04-03T16:10:32;3.78;;;2.17;;
6864;SDS011;3471;49.678;8.388;2023-04-03T16:12:59;2.08;;;1.55;;
6864;SDS011;3471;49.678;8.388;2023-04-03T16:15:25;3.17;;;1.90;;
6864;SDS011;3471;49.678;8.388;2023-04-03T16:17:51;4.72;;;2.75;;
6864;SDS011;3471;49.678;8.388;2023-04-03T16:20:18;6.80;;;3.50;;
6864;SDS011;3471;49.678;8.388;2023-04-03T16:22:44;12.80;;;3.00;;
6864;SDS011;3471;49.678;8.388;2023-04-03T16:25:10;3.30;;;1.77;;
6864;SDS011;3471;49.678;8.388;2023-04-03T16:27:36;2.85;;;2.53;;
6864;SDS011;3471;49.678;8.388;2023-04-03T16:30:03;2.40;;;2.20;;
6864;SDS011;3471;49.678;8.388;2023-04-03T16:32:29;4.63;;;3.95;;
6864;SDS011;3471;49.678;8.388;2023-04-03T16:34:56;7.50;;;3.20;;
6864;SDS011;3471;49.678;8.388;2023-04-03T16:37:22;7.60;;;4.38;;
6864;SDS011;3471;49.678;8.388;2023-04-03T16:39:48;3.53;;;2.33;;
6864;SDS011;3471;49.678;8.388;2023-04-03T16:42:14;8.90;;;3.50;;
6864;SDS011;3471;49.678;8.388;2023-04-03T16:44:40;5.10;;;2.80;;
6864;SDS011;3471;49.678;8.388;2023-04-03T16:47:06;9.40;;;3.30;;
6864;SDS011;3471;49.678;8.388;2023-04-03T16:49:32;8.60;;;4.67;;
6864;SDS011;3471;49.678;8.388;2023-04-03T16:51:59;5.85;;;4.15;;
6864;SDS011;3471;49.678;8.388;2023-04-03T16:54:25;4.32;;;3.22;;
6864;SDS011;3471;49.678;8.388;2023-04-03T16:56:51;2.77;;;2.30;;
6864;SDS011;3471;49.678;8.388;2023-04-03T16:59:17;3.63;;;2.20;;
6864;SDS011;3471;49.678;8.388;2023-04-03T17:01:42;2.73;;;2.37;;
6864;SDS011;3471;49.678;8.388;2023-04-03T17:04:08;3.87;;;1.90;;
6864;SDS011;3471;49.678;8.388;2023-04-03T17:06:34;6.75;;;2.90;;
6864;SDS011;3471;49.678;8.388;2023-04-03T17:09:00;7.97;;;2.33;;
6864;SDS011;3471;49.678;8.388;2023-04-03T17:11:26;4.18;;;2.20;;
6864;SDS011;3471;49.678;8.388;2023-04-03T17:13:52;4.10;;;2.67;;